Time;durP1;ratioP1;P1;durP2;ratioP2;P2;SDS_P1;SDS_P2;PMS_P1;PMS_P2;Temp;Humidity;BMP_temperature;BMP_pressure;BME280_temperature;BME280_humidity;BME280_pressure;Samples;Min_cycle;Max_cycle;Signal;HPM_P1;HPM_P2
2024/03/17 00:01:03;;;;;;;7.15;4.93;;;6.90;99.90;;;;;;5053732;28;20471;-81
2024/03/17 00:03:29;;;;;;;8.98;5.22;;;6.90;99.90;;;;;;5052173;28;20033;-79
2024/03/17 00:05:57;;;;;;;7.35;4.95;;;6.80;99.90;;;;;;5049500;28;20017;-81
2024/03/17 00:08:23;;;;;;;7.43;5.15;;;6.80;99.90;;;;;;5052695;28;20036;-79
2024/03/17 00:10:52;;;;;;;9.20;5.55;;;6.70;99.90;;;;;;5053554;28;20024;-81
2024/03/17 00:13:18;;;;;;;6.30;4.80;;;6.70;99.90;;;;;;5053229;28;20462;-81
2024/03/17 00:15:44;;;;;;;7.88;5.68;;;6.70;99.90;;;;;;5052135;28;20478;-78
2024/03/17 00:18:10;;;;;;;7.72;5.20;;;6.60;99.90;;;;;;5053253;28;20031;-78
2024/03/17 00:20:38;;;;;;;6.13;4.13;;;6.60;99.90;;;;;;5052037;28;20128;-81
2024/03/17 00:23:06;;;;;;;5.95;4.05;;;6.50;99.90;;;;;;5053171;28;20104;-78
2024/03/17 00:25:33;;;;;;;6.82;5.05;;;6.50;99.90;;;;;;5053270;28;20017;-78
2024/03/17 00:27:59;;;;;;;7.90;4.95;;;6.30;99.90;;;;;;5052017;28;20029;-78
2024/03/17 00:30:25;;;;;;;10.27;4.63;;;6.00;99.90;;;;;;5053134;28;20060;-78
2024/03/17 00:32:51;;;;;;;8.15;5.53;;;5.80;99.90;;;;;;5053534;28;20048;-79
2024/03/17 00:35:20;;;;;;;7.20;5.47;;;5.70;99.90;;;;;;5052806;28;20025;-78
2024/03/17 00:37:49;;;;;;;9.00;5.53;;;5.60;99.90;;;;;;5049701;28;20437;-80
2024/03/17 00:40:16;;;;;;;11.10;6.20;;;5.50;99.90;;;;;;5052768;28;20021;-79
2024/03/17 00:42:42;;;;;;;13.75;8.65;;;5.40;99.90;;;;;;5053065;28;20029;-79
2024/03/17 00:45:09;;;;;;;10.40;6.18;;;5.40;99.90;;;;;;5051585;28;20033;-81
2024/03/17 00:47:36;;;;;;;15.90;7.25;;;5.30;99.90;;;;;;5053015;28;20087;-78
2024/03/17 00:50:04;;;;;;;14.85;6.93;;;5.30;99.90;;;;;;5052536;28;20067;-81
2024/03/17 00:52:29;;;;;;;11.48;7.97;;;5.30;99.90;;;;;;5053131;28;20060;-81
2024/03/17 00:54:55;;;;;;;15.00;9.15;;;5.30;99.90;;;;;;5052618;28;20048;-80
2024/03/17 00:57:21;;;;;;;21.40;9.18;;;5.20;99.90;;;;;;5052564;28;20056;-81
2024/03/17 00:59:46;;;;;;;11.23;7.65;;;5.20;99.90;;;;;;5052583;28;20021;-78
2024/03/17 01:02:13;;;;;;;17.15;8.82;;;5.20;99.90;;;;;;5052544;28;20025;-81
2024/03/17 01:04:43;;;;;;;11.85;8.27;;;5.10;99.90;;;;;;5052453;28;20036;-81
2024/03/17 01:07:09;;;;;;;15.98;7.43;;;5.20;99.90;;;;;;5050884;28;20032;-78
2024/03/17 01:09:35;;;;;;;13.27;7.63;;;5.10;99.90;;;;;;5051417;28;20376;-78
2024/03/17 01:12:01;;;;;;;13.13;6.93;;;5.10;99.90;;;;;;5051131;28;20024;-80
2024/03/17 01:14:27;;;;;;;10.32;6.85;;;5.10;99.90;;;;;;5051496;28;20037;-78
2024/03/17 01:16:54;;;;;;;11.10;6.00;;;5.00;99.90;;;;;;5052599;28;20387;-81
2024/03/17 01:19:20;;;;;;;13.48;6.40;;;5.00;99.90;;;;;;5052277;28;20025;-78
2024/03/17 01:21:46;;;;;;;12.93;5.63;;;5.00;99.90;;;;;;5052194;28;20092;-81
2024/03/17 01:24:12;;;;;;;11.35;6.32;;;5.00;99.90;;;;;;5052212;28;20041;-81
2024/03/17 01:26:38;;;;;;;16.77;6.53;;;4.90;99.90;;;;;;5052193;28;20464;-79
2024/03/17 01:29:04;;;;;;;10.27;5.88;;;5.00;99.90;;;;;;5052384;28;20104;-79
2024/03/17 01:31:30;;;;;;;15.32;7.15;;;5.00;99.90;;;;;;5052134;28;20021;-79
2024/03/17 01:33:55;;;;;;;12.18;7.10;;;4.90;99.90;;;;;;5052517;28;20071;-79
2024/03/17 01:36:21;;;;;;;10.27;6.53;;;4.90;99.90;;;;;;5051849;28;20058;-79
2024/03/17 01:38:47;;;;;;;11.77;6.38;;;5.00;99.90;;;;;;5052275;28;20108;-78
2024/03/17 01:41:14;;;;;;;12.25;6.45;;;5.00;99.90;;;;;;5052083;28;20391;-81
2024/03/17 01:43:40;;;;;;;12.88;6.30;;;5.00;99.90;;;;;;5052438;28;20124;-81
2024/03/17 01:46:07;;;;;;;13.40;6.28;;;5.10;99.90;;;;;;5052239;28;20450;-78
2024/03/17 01:48:33;;;;;;;9.60;6.38;;;5.10;99.90;;;;;;5052259;28;20421;-78
2024/03/17 01:50:59;;;;;;;17.25;7.03;;;5.10;99.90;;;;;;5052280;28;20032;-79
2024/03/17 01:53:25;;;;;;;10.48;5.95;;;5.10;99.90;;;;;;5050355;28;20020;-78
2024/03/17 01:55:52;;;;;;;15.55;6.85;;;5.10;99.90;;;;;;5050469;28;20100;-81
2024/03/17 01:58:20;;;;;;;14.07;6.85;;;5.10;99.90;;;;;;5052155;28;20052;-81
2024/03/17 02:00:46;;;;;;;15.02;6.65;;;5.10;99.90;;;;;;5051940;28;20029;-78
2024/03/17 02:03:12;;;;;;;18.40;7.78;;;5.10;99.90;;;;;;5051127;28;20041;-78
2024/03/17 02:05:41;;;;;;;11.45;5.32;;;5.10;99.90;;;;;;5039299;28;20104;-81
2024/03/17 02:08:07;;;;;;;11.63;4.95;;;5.00;99.90;;;;;;5050825;28;20028;-79
2024/03/17 02:10:33;;;;;;;12.90;5.20;;;5.00;99.90;;;;;;5051782;28;20078;-78
2024/03/17 02:13:04;;;;;;;9.65;5.60;;;5.00;99.90;;;;;;5051981;28;20013;-79
2024/03/17 02:15:33;;;;;;;9.00;5.05;;;5.00;99.90;;;;;;5050608;28;20031;-80
2024/03/17 02:17:58;;;;;;;15.27;7.70;;;5.00;99.90;;;;;;5051994;28;20071;-79
2024/03/17 02:20:54;;;;;;;15.27;7.65;;;5.00;99.90;;;;;;5051842;28;20021;-81
2024/03/17 02:23:10;;;;;;;12.63;6.13;;;5.00;99.90;;;;;;5051427;28;20029;-80
2024/03/17 02:25:36;;;;;;;19.05;6.88;;;4.90;99.90;;;;;;5051684;28;20112;-79
2024/03/17 02:28:02;;;;;;;10.48;5.80;;;5.00;99.90;;;;;;5051720;28;20421;-81
2024/03/17 02:30:28;;;;;;;7.85;4.78;;;5.00;99.90;;;;;;5051907;28;20067;-78
2024/03/17 02:32:54;;;;;;;10.68;4.85;;;5.00;99.90;;;;;;5054231;28;20013;-78
2024/03/17 02:35:22;;;;;;;7.75;4.45;;;5.00;99.90;;;;;;5050651;28;20029;-78
2024/03/17 02:37:48;;;;;;;13.73;6.63;;;5.00;99.90;;;;;;5055746;28;20474;-81
2024/03/17 02:40:14;;;;;;;7.70;4.95;;;5.00;99.90;;;;;;5055074;28;20032;-81
2024/03/17 02:42:41;;;;;;;11.65;5.07;;;4.90;99.90;;;;;;5054066;28;20025;-81
2024/03/17 02:45:08;;;;;;;9.73;5.65;;;5.00;99.90;;;;;;5054876;28;20048;-78
2024/03/17 02:47:34;;;;;;;8.75;4.55;;;5.00;99.90;;;;;;5055259;28;20024;-81
2024/03/17 02:50:00;;;;;;;11.68;5.78;;;5.00;99.90;;;;;;5055131;28;20056;-81
2024/03/17 02:52:26;;;;;;;11.15;5.97;;;5.00;99.90;;;;;;5053955;28;20445;-80
2024/03/17 02:54:53;;;;;;;10.65;5.88;;;4.90;99.90;;;;;;5053717;28;20048;-81
2024/03/17 02:57:18;;;;;;;9.02;5.85;;;4.90;99.90;;;;;;5053803;28;20394;-80
2024/03/17 02:59:46;;;;;;;9.63;5.38;;;5.00;99.90;;;;;;5053616;28;20017;-78
2024/03/17 03:02:12;;;;;;;13.52;6.00;;;4.90;99.90;;;;;;5054932;28;20074;-79
2024/03/17 03:04:38;;;;;;;11.80;5.57;;;4.80;99.90;;;;;;5053087;28;20041;-79
2024/03/17 03:07:03;;;;;;;11.23;5.65;;;4.80;99.90;;;;;;5055026;28;20055;-80
2024/03/17 03:09:32;;;;;;;10.23;5.70;;;4.80;99.90;;;;;;5054799;28;20025;-79
2024/03/17 03:12:00;;;;;;;9.77;5.13;;;4.80;99.90;;;;;;5054596;28;20029;-79
2024/03/17 03:14:26;;;;;;;11.00;6.13;;;4.70;99.90;;;;;;5054377;28;20021;-81
2024/03/17 03:16:51;;;;;;;15.85;6.47;;;4.70;99.90;;;;;;5054869;28;20029;-79
2024/03/17 03:19:19;;;;;;;8.88;6.10;;;4.70;99.90;;;;;;5054471;28;20104;-78
2024/03/17 03:21:45;;;;;;;13.80;6.57;;;4.70;99.90;;;;;;5054818;28;20096;-81
2024/03/17 03:24:12;;;;;;;13.35;6.28;;;4.70;99.90;;;;;;5054392;28;20037;-81
2024/03/17 03:26:38;;;;;;;12.48;6.03;;;4.60;99.90;;;;;;5053588;28;20383;-79
2024/03/17 03:29:04;;;;;;;8.98;6.15;;;4.60;99.90;;;;;;5054494;28;20128;-78
2024/03/17 03:31:31;;;;;;;8.73;6.35;;;4.50;99.90;;;;;;5054319;28;20410;-80
2024/03/17 03:33:57;;;;;;;9.15;5.72;;;4.60;99.90;;;;;;5053081;28;20116;-80
2024/03/17 03:36:23;;;;;;;10.93;7.00;;;4.60;99.90;;;;;;5054329;28;20092;-81
2024/03/17 03:38:49;;;;;;;11.60;5.55;;;4.50;99.90;;;;;;5052718;28;20028;-80
2024/03/17 03:41:16;;;;;;;12.30;6.15;;;4.50;99.90;;;;;;5053236;28;20475;-78
2024/03/17 03:43:43;;;;;;;14.35;7.03;;;4.50;99.90;;;;;;5053912;28;20115;-78
2024/03/17 03:46:09;;;;;;;11.85;6.28;;;4.40;99.90;;;;;;5053999;28;20036;-81
2024/03/17 03:48:35;;;;;;;10.93;6.05;;;4.40;99.90;;;;;;5053819;28;20021;-78
2024/03/17 03:51:05;;;;;;;14.88;6.88;;;4.40;99.90;;;;;;5053117;28;20028;-81
2024/03/17 03:53:32;;;;;;;9.02;6.15;;;4.40;99.90;;;;;;5052487;28;20025;-78
2024/03/17 03:55:59;;;;;;;12.10;6.57;;;4.20;99.90;;;;;;5053894;28;20021;-81
2024/03/17 03:58:24;;;;;;;12.50;6.07;;;4.20;99.90;;;;;;5053618;28;20060;-81
2024/03/17 04:00:50;;;;;;;11.65;5.88;;;4.10;99.90;;;;;;5054085;28;20048;-80
2024/03/17 04:03:16;;;;;;;10.52;6.07;;;4.10;99.90;;;;;;5052200;28;20056;-81
2024/03/17 04:05:41;;;;;;;9.45;5.57;;;4.00;99.90;;;;;;5053796;28;20095;-80
2024/03/17 04:08:08;;;;;;;12.32;6.20;;;3.90;99.90;;;;;;5053380;28;20021;-81
2024/03/17 04:10:35;;;;;;;11.10;5.57;;;3.90;99.90;;;;;;5053974;28;20029;-79
2024/03/17 04:13:03;;;;;;;12.43;5.70;;;3.80;99.90;;;;;;5053618;28;20021;-81
2024/03/17 04:15:29;;;;;;;10.40;6.22;;;3.80;99.90;;;;;;5052347;28;20040;-78
2024/03/17 04:17:54;;;;;;;13.25;6.75;;;3.80;99.90;;;;;;5053503;28;20021;-80
2024/03/17 04:20:20;;;;;;;12.90;5.10;;;3.70;99.90;;;;;;5053302;28;20025;-78
2024/03/17 04:22:48;;;;;;;13.57;6.18;;;3.70;99.90;;;;;;5053601;28;20021;-80
2024/03/17 04:25:14;;;;;;;12.35;6.32;;;3.60;99.90;;;;;;5053344;28;20029;-80
2024/03/17 04:27:40;;;;;;;13.10;5.32;;;3.60;99.90;;;;;;5053151;28;20033;-80
2024/03/17 04:30:06;;;;;;;12.35;5.55;;;3.50;99.90;;;;;;5052322;28;20374;-80
2024/03/17 04:32:33;;;;;;;13.13;4.75;;;3.40;99.90;;;;;;5052763;28;20104;-78
2024/03/17 04:34:59;;;;;;;8.95;4.97;;;3.30;99.90;;;;;;5053523;28;20033;-80
2024/03/17 04:37:25;;;;;;;14.50;4.95;;;3.30;99.90;;;;;;5053092;28;20024;-80
2024/03/17 04:39:51;;;;;;;12.50;4.72;;;3.20;99.90;;;;;;5052015;28;20445;-81
2024/03/17 04:42:17;;;;;;;13.75;5.03;;;3.10;99.90;;;;;;5053263;28;20029;-78
2024/03/17 04:44:44;;;;;;;13.93;5.47;;;3.10;99.90;;;;;;5053008;28;20111;-80
2024/03/17 04:47:10;;;;;;;10.27;4.80;;;3.00;99.90;;;;;;5049701;28;20013;-78
2024/03/17 04:49:36;;;;;;;6.68;3.78;;;2.90;99.90;;;;;;5051924;28;20021;-80
2024/03/17 04:52:02;;;;;;;7.15;3.88;;;2.90;99.90;;;;;;5052561;28;20039;-78
2024/03/17 04:54:28;;;;;;;8.63;4.10;;;2.80;99.90;;;;;;5051110;28;20024;-79
2024/03/17 04:56:53;;;;;;;8.48;3.88;;;2.70;99.90;;;;;;5051005;28;20111;-80
2024/03/17 04:59:19;;;;;;;9.40;4.03;;;2.70;99.90;;;;;;5052611;28;20087;-78
2024/03/17 05:01:45;;;;;;;8.30;3.92;;;2.60;99.90;;;;;;5050780;28;20079;-78
2024/03/17 05:04:10;;;;;;;12.13;3.67;;;2.60;99.90;;;;;;5051320;28;20032;-77
2024/03/17 05:06:36;;;;;;;8.20;3.92;;;2.50;99.90;;;;;;5051154;28;20031;-78
2024/03/17 05:09:04;;;;;;;8.45;4.18;;;2.50;99.90;;;;;;5051184;28;20083;-81
2024/03/17 05:11:31;;;;;;;6.55;3.75;;;2.40;99.90;;;;;;5052852;28;20479;-80
2024/03/17 05:13:57;;;;;;;9.85;4.28;;;2.40;99.90;;;;;;5052466;28;20103;-78
2024/03/17 05:16:24;;;;;;;10.82;4.15;;;2.40;99.90;;;;;;5051510;28;20570;-78
2024/03/17 05:18:49;;;;;;;8.65;3.78;;;2.40;99.90;;;;;;5052550;28;20100;-78
2024/03/17 05:21:15;;;;;;;6.80;4.20;;;2.40;99.90;;;;;;5050667;28;20113;-78
2024/03/17 05:23:41;;;;;;;11.27;3.63;;;2.40;99.90;;;;;;5047959;28;20073;-81
2024/03/17 05:26:06;;;;;;;10.45;4.35;;;2.30;99.90;;;;;;5052388;28;20021;-78
2024/03/17 05:28:32;;;;;;;8.57;3.45;;;2.30;99.90;;;;;;5051047;28;20017;-80
2024/03/17 05:30:58;;;;;;;10.18;3.58;;;2.30;99.90;;;;;;5052308;28;20104;-78
2024/03/17 05:33:26;;;;;;;8.65;3.70;;;2.30;99.90;;;;;;5052441;28;20506;-78
2024/03/17 05:35:53;;;;;;;10.02;3.55;;;2.30;99.90;;;;;;5052268;28;20498;-81
2024/03/17 05:38:26;;;;;;;8.15;3.40;;;2.30;99.90;;;;;;5051116;28;20017;-78
2024/03/17 05:41:02;;;;;;;10.32;4.03;;;2.30;99.90;;;;;;5052001;28;20112;-80
2024/03/17 05:43:29;;;;;;;7.82;3.60;;;2.30;99.90;;;;;;5051969;28;20094;-81
2024/03/17 05:46:02;;;;;;;6.25;3.72;;;2.40;99.90;;;;;;5052614;28;20022;-81
2024/03/17 05:48:37;;;;;;;12.48;4.28;;;2.40;99.90;;;;;;5052267;28;20017;-78
2024/03/17 05:51:04;;;;;;;10.80;4.97;;;2.40;99.90;;;;;;5052084;28;20163;-79
2024/03/17 05:53:31;;;;;;;8.65;3.97;;;2.40;99.90;;;;;;5050722;28;20012;-78
2024/03/17 05:55:58;;;;;;;15.52;4.57;;;2.40;99.90;;;;;;5052528;28;20033;-78
2024/03/17 05:58:24;;;;;;;17.58;3.90;;;2.50;99.90;;;;;;5051771;28;20072;-78
2024/03/17 06:00:50;;;;;;;10.35;3.88;;;2.50;99.90;;;;;;5052225;28;20057;-78
2024/03/17 06:03:17;;;;;;;9.10;3.83;;;2.50;99.90;;;;;;5051572;28;20036;-78
2024/03/17 06:05:45;;;;;;;7.57;3.60;;;2.60;99.90;;;;;;5051690;28;20120;-80
2024/03/17 06:08:11;;;;;;;6.63;3.45;;;2.60;99.90;;;;;;5055830;28;20036;-81
2024/03/17 06:10:38;;;;;;;9.65;3.40;;;2.80;99.90;;;;;;5056020;28;20726;-78
2024/03/17 06:13:04;;;;;;;7.78;3.35;;;2.80;99.90;;;;;;5055795;28;20017;-80
2024/03/17 06:15:30;;;;;;;8.13;3.35;;;2.90;99.90;;;;;;5055856;28;20092;-78
2024/03/17 06:17:56;;;;;;;9.18;3.45;;;3.00;99.90;;;;;;5054448;28;20066;-81
2024/03/17 06:20:26;;;;;;;7.00;2.95;;;3.10;99.90;;;;;;5055511;28;20021;-78
2024/03/17 06:22:55;;;;;;;8.65;3.10;;;3.20;99.90;;;;;;5055486;28;20017;-81
2024/03/17 06:25:23;;;;;;;8.77;3.17;;;3.00;99.90;;;;;;5054353;28;20090;-81
2024/03/17 06:27:52;;;;;;;11.48;4.15;;;3.20;99.90;;;;;;5055377;28;20386;-78
2024/03/17 06:30:18;;;;;;;6.35;3.03;;;3.20;99.90;;;;;;5054560;28;20066;-78
2024/03/17 06:32:45;;;;;;;9.68;3.50;;;3.30;99.90;;;;;;5054114;28;20063;-80
2024/03/17 06:35:18;;;;;;;8.48;3.53;;;3.20;99.90;;;;;;5055424;28;20029;-78
2024/03/17 06:37:45;;;;;;;10.10;3.97;;;3.30;99.90;;;;;;5049770;28;20025;-78
2024/03/17 06:40:14;;;;;;;5.40;3.15;;;3.30;99.90;;;;;;5043073;28;20159;-78
2024/03/17 06:42:39;;;;;;;5.28;3.30;;;3.40;99.90;;;;;;5045766;28;20037;-78
2024/03/17 06:45:08;;;;;;;10.50;4.32;;;3.50;99.90;;;;;;5041520;28;20036;-78
2024/03/17 06:47:36;;;;;;;12.20;3.97;;;3.60;99.90;;;;;;5055049;28;20387;-78
2024/03/17 06:50:03;;;;;;;7.97;4.20;;;3.60;99.90;;;;;;5054480;28;20043;-79
2024/03/17 06:52:29;;;;;;;15.63;4.05;;;3.60;99.90;;;;;;5053223;28;20075;-78
2024/03/17 06:54:55;;;;;;;8.45;3.80;;;3.70;99.90;;;;;;5054372;28;20021;-78
2024/03/17 06:57:21;;;;;;;15.70;5.05;;;3.80;99.90;;;;;;5051918;28;20077;-78
2024/03/17 06:59:48;;;;;;;11.32;4.63;;;3.90;99.90;;;;;;5053574;28;20025;-80
2024/03/17 07:02:17;;;;;;;9.23;4.43;;;4.00;99.90;;;;;;5053822;28;20432;-78
2024/03/17 07:04:43;;;;;;;6.82;3.83;;;4.10;99.90;;;;;;5043743;28;20453;-78
2024/03/17 07:07:09;;;;;;;5.28;3.72;;;4.10;99.90;;;;;;5047384;28;20029;-78
2024/03/17 07:09:35;;;;;;;7.63;4.78;;;4.10;99.90;;;;;;5047722;28;20439;-81
2024/03/17 07:12:00;;;;;;;7.47;4.53;;;4.00;96.30;;;;;;5053031;28;20064;-78
2024/03/17 07:14:26;;;;;;;9.00;3.80;;;4.00;94.50;;;;;;5041840;28;20108;-78
2024/03/17 07:16:53;;;;;;;7.32;3.25;;;4.10;92.50;;;;;;5042389;28;20053;-81
2024/03/17 07:19:18;;;;;;;9.65;4.38;;;4.30;94.40;;;;;;5053353;28;20055;-80
2024/03/17 07:21:44;;;;;;;10.25;3.85;;;4.50;93.80;;;;;;5037622;28;20025;-78
2024/03/17 07:24:10;;;;;;;10.27;3.53;;;4.40;91.90;;;;;;5053962;28;20371;-80
2024/03/17 07:26:35;;;;;;;8.45;4.35;;;4.30;92.90;;;;;;5053917;28;20028;-78
2024/03/17 07:29:01;;;;;;;10.52;4.97;;;3.80;89.00;;;;;;5052371;28;20513;-81
2024/03/17 07:31:27;;;;;;;8.45;3.72;;;3.80;89.20;;;;;;5043433;28;20086;-81
2024/03/17 07:33:52;;;;;;;7.93;3.70;;;3.80;89.40;;;;;;5039659;28;20474;-79
2024/03/17 07:36:18;;;;;;;14.05;3.97;;;3.60;89.30;;;;;;5049024;28;20100;-80
2024/03/17 07:38:44;;;;;;;10.07;4.32;;;3.60;90.60;;;;;;5049033;28;20021;-79
2024/03/17 07:41:10;;;;;;;11.02;4.15;;;3.90;94.00;;;;;;5045196;28;20029;-79
2024/03/17 07:43:37;;;;;;;10.30;3.75;;;3.90;89.00;;;;;;5043735;28;20041;-79
2024/03/17 07:46:07;;;;;;;9.30;3.72;;;4.00;90.70;;;;;;5045880;28;20099;-79
2024/03/17 07:48:34;;;;;;;9.63;4.60;;;4.20;92.30;;;;;;5053312;28;20025;-81
2024/03/17 07:51:06;;;;;;;8.10;4.15;;;4.30;90.30;;;;;;5039831;28;20095;-79
2024/03/17 07:53:32;;;;;;;10.52;4.63;;;4.30;87.50;;;;;;5048691;28;20025;-79
2024/03/17 07:56:06;;;;;;;10.85;4.55;;;4.50;84.20;;;;;;5044835;28;20075;-79
2024/03/17 07:58:33;;;;;;;15.05;4.13;;;4.50;85.70;;;;;;5052447;28;20544;-79
2024/03/17 08:01:04;;;;;;;19.02;5.72;;;4.50;87.90;;;;;;5048329;28;20445;-79
2024/03/17 08:03:31;;;;;;;11.13;5.72;;;4.20;84.00;;;;;;5052839;28;20033;-79
2024/03/17 08:05:57;;;;;;;11.45;5.32;;;3.90;84.20;;;;;;5052002;28;20410;-81
2024/03/17 08:08:23;;;;;;;9.05;4.20;;;3.90;87.00;;;;;;5046124;28;20100;-79
2024/03/17 08:10:50;;;;;;;9.70;3.65;;;3.80;89.20;;;;;;5049971;28;20117;-80
2024/03/17 08:13:16;;;;;;;10.48;4.50;;;4.10;91.90;;;;;;5053302;28;20478;-78
2024/03/17 08:15:45;;;;;;;9.40;4.57;;;4.30;91.60;;;;;;5049700;28;20513;-79
2024/03/17 08:18:12;;;;;;;8.82;4.70;;;4.50;90.60;;;;;;5035622;28;20025;-79
2024/03/17 08:20:43;;;;;;;6.88;4.20;;;4.50;88.10;;;;;;5050705;28;20063;-80
2024/03/17 08:23:10;;;;;;;11.05;5.80;;;4.30;86.20;;;;;;5052428;28;20033;-80
2024/03/17 08:25:36;;;;;;;8.88;3.30;;;4.30;86.60;;;;;;5051348;28;20044;-79
2024/03/17 08:28:03;;;;;;;10.85;4.10;;;4.20;85.10;;;;;;5052912;28;20025;-79
2024/03/17 08:30:30;;;;;;;6.22;3.90;;;4.50;84.30;;;;;;5051590;28;20017;-79
2024/03/17 08:32:56;;;;;;;7.30;3.47;;;4.50;79.20;;;;;;5053203;28;20017;-79
2024/03/17 08:35:22;;;;;;;7.80;3.53;;;4.60;81.70;;;;;;5051342;28;20163;-79
2024/03/17 08:37:48;;;;;;;11.18;3.97;;;4.80;79.50;;;;;;5051428;28;20112;-81
2024/03/17 08:40:13;;;;;;;12.82;3.10;;;4.80;76.20;;;;;;5052858;28;20021;-79
2024/03/17 08:42:40;;;;;;;6.25;3.15;;;4.80;75.10;;;;;;5048394;28;20036;-80
2024/03/17 08:45:06;;;;;;;7.28;3.28;;;4.60;75.60;;;;;;5046966;28;20091;-78
2024/03/17 08:47:32;;;;;;;6.88;2.90;;;4.90;76.80;;;;;;5046690;28;20431;-78
2024/03/17 08:49:58;;;;;;;5.13;2.45;;;4.90;77.90;;;;;;5044827;28;20478;-79
2024/03/17 08:52:24;;;;;;;6.10;2.72;;;5.20;76.00;;;;;;5052185;28;20159;-78
2024/03/17 08:54:52;;;;;;;14.10;8.70;;;5.20;73.10;;;;;;5052820;28;20099;-78
2024/03/17 08:57:18;;;;;;;94.55;44.72;;;5.50;71.10;;;;;;5051282;28;20498;-80
2024/03/17 08:59:46;;;;;;;40.13;24.20;;;5.80;71.60;;;;;;5052619;28;20024;-79
2024/03/17 09:02:14;;;;;;;67.95;33.78;;;5.90;71.00;;;;;;5051244;28;20031;-80
2024/03/17 09:04:40;;;;;;;162.68;77.78;;;6.10;71.70;;;;;;5051738;28;20043;-81
2024/03/17 09:07:06;;;;;;;51.55;23.75;;;6.00;68.20;;;;;;5051391;28;20087;-78
2024/03/17 09:09:32;;;;;;;54.30;22.55;;;5.90;68.20;;;;;;5051203;28;20478;-80
2024/03/17 09:11:58;;;;;;;28.90;14.85;;;5.80;67.70;;;;;;5051360;28;20079;-81
2024/03/17 09:14:24;;;;;;;364.63;167.80;;;5.90;68.30;;;;;;5051417;28;20027;-80
2024/03/17 09:16:50;;;;;;;35.10;16.50;;;5.90;68.00;;;;;;5052683;28;20482;-79
2024/03/17 09:19:16;;;;;;;117.35;52.13;;;6.10;67.80;;;;;;5052422;28;20418;-80
2024/03/17 09:21:41;;;;;;;99.88;48.13;;;6.30;68.10;;;;;;5052552;28;20107;-78
2024/03/17 09:24:07;;;;;;;88.65;45.47;;;6.50;68.20;;;;;;5044510;28;20124;-78
2024/03/17 09:26:34;;;;;;;23.30;9.75;;;6.60;67.80;;;;;;5049354;28;20442;-78
2024/03/17 09:29:00;;;;;;;11.15;5.25;;;6.40;66.00;;;;;;5039809;28;20018;-78
2024/03/17 09:31:26;;;;;;;6.75;4.20;;;6.60;66.00;;;;;;5048459;28;20028;-81
2024/03/17 09:33:51;;;;;;;20.38;8.30;;;6.80;66.00;;;;;;5051627;28;20025;-81
2024/03/17 09:36:18;;;;;;;15.98;7.30;;;7.00;66.00;;;;;;5052630;28;20386;-82
2024/03/17 09:38:46;;;;;;;49.85;19.48;;;7.00;64.20;;;;;;5051039;28;20456;-79
2024/03/17 09:41:24;;;;;;;7.00;2.25;;;7.30;65.80;;;;;;5052096;28;20021;-83
2024/03/17 09:43:53;;;;;;;277.08;118.72;;;7.10;63.20;;;;;;5054410;28;20048;-81
2024/03/17 09:46:19;;;;;;;503.77;233.35;;;6.70;62.80;;;;;;5054698;28;20040;-81
2024/03/17 09:48:45;;;;;;;76.15;33.13;;;6.30;63.50;;;;;;5056504;28;20025;-82
2024/03/17 09:51:22;;;;;;;65.28;28.80;;;6.60;65.60;;;;;;5054823;28;20042;-77
2024/03/17 09:53:48;;;;;;;232.68;95.65;;;6.60;64.80;;;;;;5051491;28;20021;-77
2024/03/17 09:56:18;;;;;;;96.40;41.45;;;6.60;66.60;;;;;;5053692;28;20159;-77
2024/03/17 09:58:45;;;;;;;112.30;49.65;;;6.60;66.00;;;;;;5052555;28;20084;-77
2024/03/17 10:01:11;;;;;;;104.28;44.42;;;6.70;63.60;;;;;;5051800;28;20029;-77
2024/03/17 10:04:01;;;;;;;63.63;30.45;;;6.60;63.50;;;;;;5049009;28;20376;-77
2024/03/17 10:06:29;;;;;;;76.97;37.95;;;6.50;63.90;;;;;;5050124;28;20044;-77
2024/03/17 10:08:57;;;;;;;22.00;12.85;;;6.60;65.30;;;;;;5053267;28;20028;-79
2024/03/17 10:11:25;;;;;;;12.50;7.90;;;6.50;64.70;;;;;;5053337;28;20382;-80
2024/03/17 10:14:03;;;;;;;31.58;21.52;;;6.10;62.60;;;;;;5049717;28;20154;-77
2024/03/17 10:16:30;;;;;;;24.00;18.35;;;6.00;64.50;;;;;;5054968;28;20025;-80
2024/03/17 10:19:10;;;;;;;8.65;6.13;;;6.10;65.30;;;;;;5055360;28;20486;-77
2024/03/17 10:21:36;;;;;;;8.70;6.25;;;6.10;65.90;;;;;;5055756;28;20017;-76
2024/03/17 10:24:22;;;;;;;13.45;12.05;;;6.20;65.70;;;;;;5054407;28;20033;-79
2024/03/17 10:26:51;;;;;;;7.22;4.95;;;6.30;65.70;;;;;;5052202;28;20029;-80
2024/03/17 10:29:26;;;;;;;7.57;5.35;;;6.20;64.60;;;;;;5046090;28;20530;-79
2024/03/17 10:32:01;;;;;;;9.05;5.00;;;6.30;64.70;;;;;;5053395;28;20099;-79
2024/03/17 10:34:34;;;;;;;10.73;9.10;;;6.40;65.10;;;;;;5051997;28;20025;-80
2024/03/17 10:37:03;;;;;;;;;;;6.20;64.60;;;;;;5054531;28;20028;-79
2024/03/17 10:39:28;;;;;;;12.43;4.63;;;6.60;65.80;;;;;;5053111;28;19962;-77
2024/03/17 10:42:03;;;;;;;5.30;3.70;;;7.00;67.00;;;;;;5047595;28;20491;-77
2024/03/17 10:44:34;;;;;;;7.63;3.65;;;7.20;65.70;;;;;;5045733;28;20036;-77
2024/03/17 10:47:01;;;;;;;5.70;3.13;;;7.30;65.00;;;;;;5048307;28;20017;-77
2024/03/17 10:49:32;;;;;;;7.35;3.25;;;7.10;62.90;;;;;;5054226;28;20029;-77
2024/03/17 10:52:06;;;;;;;6.65;2.67;;;7.00;63.90;;;;;;5047868;28;20037;-80
2024/03/17 10:54:33;;;;;;;13.60;3.65;;;7.20;63.60;;;;;;5053454;28;20475;-80
2024/03/17 10:57:22;;;;;;;7.20;2.85;;;7.20;63.80;;;;;;5052363;28;20556;-79
2024/03/17 10:59:50;;;;;;;10.20;6.15;;;7.10;62.50;;;;;;5051679;28;20116;-77
2024/03/17 11:02:23;;;;;;;7.82;3.72;;;7.10;63.10;;;;;;5047547;28;20020;-80
2024/03/17 11:04:58;;;;;;;6.03;4.82;;;6.60;61.90;;;;;;5054497;28;20485;-78
2024/03/17 11:07:26;;;;;;;6.03;3.33;;;6.30;62.80;;;;;;5054794;28;20444;-80
2024/03/17 11:09:55;;;;;;;6.85;2.83;;;6.20;63.50;;;;;;5053382;28;20017;-77
2024/03/17 11:12:43;;;;;;;6.93;3.08;;;6.10;63.50;;;;;;5054481;28;20036;-80
2024/03/17 11:15:38;;;;;;;6.22;3.25;;;6.20;64.70;;;;;;5045453;28;20032;-77
2024/03/17 11:18:09;;;;;;;8.90;4.75;;;6.30;65.50;;;;;;5054071;28;20021;-81
2024/03/17 11:20:39;;;;;;;6.30;3.00;;;6.20;65.10;;;;;;5053091;28;20383;-77
2024/03/17 11:23:06;;;;;;;2.80;2.60;;;6.30;64.40;;;;;;5053805;28;20098;-80
2024/03/17 11:25:34;;;;;;;6.00;3.30;;;6.10;64.00;;;;;;5052894;28;20033;-77
2024/03/17 11:28:01;;;;;;;5.63;3.72;;;6.10;63.80;;;;;;5053504;28;20095;-77
2024/03/17 11:30:55;;;;;;;4.78;2.97;;;6.20;65.50;;;;;;5052965;28;20098;-78
2024/03/17 11:33:29;;;;;;;9.00;3.20;;;6.00;63.80;;;;;;5052728;28;20043;-79
2024/03/17 11:36:23;;;;;;;4.22;3.13;;;6.10;65.30;;;;;;5053498;28;20021;-78
2024/03/17 11:39:06;;;;;;;5.55;3.38;;;6.30;65.20;;;;;;5077859;28;20033;-80
2024/03/17 11:41:40;;;;;;;11.80;3.70;;;6.70;65.90;;;;;;5050518;28;20028;-79
2024/03/17 11:44:23;;;;;;;8.18;2.95;;;7.00;64.40;;;;;;5052016;28;20460;-77
2024/03/17 11:47:00;;;;;;;6.13;2.55;;;7.40;63.90;;;;;;5063789;28;20051;-79
2024/03/17 11:49:27;;;;;;;7.78;2.70;;;7.70;63.80;;;;;;5053419;28;20028;-77
2024/03/17 11:51:57;;;;;;;5.68;2.90;;;8.00;63.80;;;;;;5051931;28;20372;-80
2024/03/17 11:54:29;;;;;;;6.20;2.97;;;7.60;61.40;;;;;;5053957;28;20079;-77
2024/03/17 11:56:56;;;;;;;21.25;8.95;;;7.30;62.30;;;;;;5052050;28;20029;-77
2024/03/17 11:59:22;;;;;;;30.38;15.23;;;7.00;62.90;;;;;;5054156;28;20109;-77
2024/03/17 12:01:51;;;;;;;6.60;3.03;;;7.00;63.30;;;;;;5053799;28;20092;-77
2024/03/17 12:04:19;;;;;;;12.15;3.25;;;7.00;63.60;;;;;;5043969;28;20116;-81
2024/03/17 12:06:52;;;;;;;6.65;3.15;;;6.80;63.50;;;;;;5053705;28;20017;-78
2024/03/17 12:09:26;;;;;;;5.85;2.65;;;6.70;63.40;;;;;;5049474;28;20031;-80
2024/03/17 12:12:05;;;;;;;8.80;2.60;;;6.80;63.70;;;;;;5051783;28;20025;-80
2024/03/17 12:14:31;;;;;;;7.75;2.72;;;6.80;63.70;;;;;;5051778;28;20025;-77
2024/03/17 12:16:58;;;;;;;2.95;2.15;;;7.10;65.00;;;;;;5053604;28;20492;-77
2024/03/17 12:19:25;;;;;;;7.43;2.28;;;7.30;64.70;;;;;;5052028;28;20652;-79
2024/03/17 12:21:56;;;;;;;6.55;3.15;;;7.20;63.50;;;;;;5046652;28;20021;-77
2024/03/17 12:24:32;;;;;;;6.05;2.70;;;7.10;63.20;;;;;;5052548;28;20036;-82
2024/03/17 12:27:00;;;;;;;6.13;2.72;;;6.90;63.40;;;;;;5049977;28;20025;-77
2024/03/17 12:29:40;;;;;;;8.20;2.40;;;6.70;63.80;;;;;;5050219;28;20445;-77
2024/03/17 12:32:17;;;;;;;8.68;3.60;;;6.90;66.00;;;;;;5049588;28;20016;-79
2024/03/17 12:34:47;;;;;;;9.63;3.03;;;7.10;65.90;;;;;;5050782;28;20028;-80
2024/03/17 12:37:17;;;;;;;7.72;3.15;;;7.10;63.70;;;;;;5051542;28;20471;-77
2024/03/17 12:39:43;;;;;;;4.20;2.38;;;7.00;62.90;;;;;;5037366;28;20495;-79
2024/03/17 12:42:12;;;;;;;19.70;7.80;;;6.90;62.90;;;;;;5051619;28;20033;-77
2024/03/17 12:44:48;;;;;;;6.45;2.72;;;6.90;63.40;;;;;;5052624;28;20488;-77
2024/03/17 12:47:19;;;;;;;4.78;2.78;;;6.90;62.60;;;;;;5051517;28;20044;-80
2024/03/17 12:49:49;;;;;;;11.40;3.72;;;6.90;62.30;;;;;;5052872;28;20021;-77
2024/03/17 12:52:25;;;;;;;4.75;2.13;;;7.10;62.40;;;;;;5051477;28;20017;-79
2024/03/17 13:00:32;;;;;;;8.20;2.53;;;7.50;63.40;;;;;;5050141;28;20044;-79